Aérodrome :
LOGIN :

S'inscrire | Disclaimer

   EN    FR    IT 

 










Légende :    VFR   VFR Marginal   IFR   IFR Intensif   IFR Très Intensif
Visi : 
Plafond : 
>= 8 km
>= 3000ft
5 à 8 km
1000 à 3000 ft
1500m à 5 km
500 à 1000 ft
800 à 1500m
200 à 500 ft
< 800m
< 200 ft
Symboles :   Orages  Brouillard  Fortes neiges  Fortes précipitations  Vent > 20 kt
SIGMETs :   Divers  Orages  Givrage  Turbulence  Onde Orograph.  Cendres Volcan.






- Altitude de l'aérodrome : 289 ft
- Code IATA : ZAD


LDZD - Zadar

DERNIER METAR :
  • 140300Z 14005KT 0300 R13/0750D FG NSC 11/11 Q1022 NOSIG

METARs EXPIRÉS :
  • 140230Z 11004KT 360V130 0300 R13/0650N FG NSC 11/11 Q1023 NOSIG
  • 140200Z 13004KT 360V130 0300 R13/0700N FG NSC 11/11 Q1022 NOSIG
  • 140130Z 14002KT 0500 R13/0400U FG NSC 11/11 Q1023
  • 140100Z 00000KT 0500 R13/0650N FG NSC 11/11 Q1023
  • 140030Z 15003KT 0200 R13/0250N FG NSC 12/11 Q1023

TAF TAF LDZD
Valide du 14 à 00h jusqu'au 15 à 00h UTC


132325Z 1400/1500 VRB02KT CAVOK TX23/1412Z TN10/1403Z
PROB40 1400/1406 2000 BCFG
PROB30
TEMPO 1400/1405 0300 FG
TEMPO 1411/1415 30008KT
PROB30 1421/1500 1500 BCFG



MET'MAP, la Météo Aéronautique d'un coup d'oeil ! - Copyright ORBIFLY Décembre 2007 - Disclaimer

ORBIFLY MET'MAP TEAM :

Programmation & Développement : Alexandra Zaïnal
Conception & Développement : Baudouin d'Aumeries
Co-Programmation & Développement : Marc-Olivier Méhu
Soutien technique & logistique : Manuel Goepfert

Contact : metmap@orbifly.com




SOURCES & CREDITS :

   NOAA